sensor_id;sensor_type;location;lat;lon;timestamp;P1;durP1;ratioP1;P2;durP2;ratioP2
23310;SDS011;11828;51.508;18.118;2023-04-15T00:00:16;238.52;;;86.55;;
23310;SDS011;11828;51.508;18.118;2023-04-15T00:03:02;236.45;;;84.10;;
23310;SDS011;11828;51.508;18.118;2023-04-15T00:05:30;236.25;;;85.80;;
23310;SDS011;11828;51.508;18.118;2023-04-15T00:07:56;236.93;;;81.35;;
23310;SDS011;11828;51.508;18.118;2023-04-15T00:10:26;229.98;;;80.45;;
23310;SDS011;11828;51.508;18.118;2023-04-15T00:12:52;239.52;;;83.97;;
23310;SDS011;11828;51.508;18.118;2023-04-15T00:15:19;253.98;;;81.82;;
23310;SDS011;11828;51.508;18.118;2023-04-15T00:17:45;230.45;;;81.35;;
23310;SDS011;11828;51.508;18.118;2023-04-15T00:20:11;232.38;;;81.70;;
23310;SDS011;11828;51.508;18.118;2023-04-15T00:22:37;226.50;;;81.35;;
23310;SDS011;11828;51.508;18.118;2023-04-15T00:25:04;231.27;;;88.18;;
23310;SDS011;11828;51.508;18.118;2023-04-15T00:27:30;227.63;;;82.63;;
23310;SDS011;11828;51.508;18.118;2023-04-15T00:29:56;233.75;;;81.88;;
23310;SDS011;11828;51.508;18.118;2023-04-15T00:32:22;223.73;;;82.63;;
23310;SDS011;11828;51.508;18.118;2023-04-15T00:34:48;231.68;;;87.18;;
23310;SDS011;11828;51.508;18.118;2023-04-15T00:37:15;242.00;;;81.10;;
23310;SDS011;11828;51.508;18.118;2023-04-15T00:39:41;220.75;;;83.60;;
23310;SDS011;11828;51.508;18.118;2023-04-15T00:42:08;177.80;;;78.57;;
23310;SDS011;11828;51.508;18.118;2023-04-15T00:44:35;149.80;;;71.22;;
23310;SDS011;11828;51.508;18.118;2023-04-15T00:47:01;142.38;;;71.05;;
23310;SDS011;11828;51.508;18.118;2023-04-15T00:49:29;121.78;;;66.03;;
23310;SDS011;11828;51.508;18.118;2023-04-15T00:51:56;107.07;;;63.60;;
23310;SDS011;11828;51.508;18.118;2023-04-15T00:54:22;99.97;;;62.88;;
23310;SDS011;11828;51.508;18.118;2023-04-15T00:56:48;126.00;;;68.72;;
23310;SDS011;11828;51.508;18.118;2023-04-15T00:59:14;122.57;;;66.93;;
23310;SDS011;11828;51.508;18.118;2023-04-15T01:01:42;109.78;;;65.20;;
23310;SDS011;11828;51.508;18.118;2023-04-15T01:04:09;114.82;;;67.85;;
23310;SDS011;11828;51.508;18.118;2023-04-15T01:06:36;99.57;;;62.80;;
23310;SDS011;11828;51.508;18.118;2023-04-15T01:09:02;108.43;;;65.72;;
23310;SDS011;11828;51.508;18.118;2023-04-15T01:11:29;91.95;;;59.28;;
23310;SDS011;11828;51.508;18.118;2023-04-15T01:13:58;86.82;;;53.35;;
23310;SDS011;11828;51.508;18.118;2023-04-15T01:16:25;78.68;;;53.92;;
23310;SDS011;11828;51.508;18.118;2023-04-15T01:18:53;56.90;;;43.55;;
23310;SDS011;11828;51.508;18.118;2023-04-15T01:21:20;61.50;;;45.90;;
23310;SDS011;11828;51.508;18.118;2023-04-15T01:23:47;43.13;;;30.58;;
23310;SDS011;11828;51.508;18.118;2023-04-15T01:26:14;62.65;;;46.97;;
23310;SDS011;11828;51.508;18.118;2023-04-15T01:28:41;56.08;;;42.20;;
23310;SDS011;11828;51.508;18.118;2023-04-15T01:31:11;67.22;;;48.95;;
23310;SDS011;11828;51.508;18.118;2023-04-15T01:33:39;55.58;;;44.92;;
23310;SDS011;11828;51.508;18.118;2023-04-15T01:36:07;44.50;;;35.58;;
23310;SDS011;11828;51.508;18.118;2023-04-15T01:38:37;48.55;;;38.75;;
23310;SDS011;11828;51.508;18.118;2023-04-15T01:41:03;40.38;;;33.40;;
23310;SDS011;11828;51.508;18.118;2023-04-15T01:43:32;36.63;;;32.70;;
23310;SDS011;11828;51.508;18.118;2023-04-15T01:46:00;23.00;;;14.43;;
23310;SDS011;11828;51.508;18.118;2023-04-15T01:48:26;26.20;;;9.68;;
23310;SDS011;11828;51.508;18.118;2023-04-15T01:50:53;33.13;;;25.42;;
23310;SDS011;11828;51.508;18.118;2023-04-15T01:53:22;39.85;;;29.38;;
23310;SDS011;11828;51.508;18.118;2023-04-15T01:55:49;47.78;;;36.65;;
23310;SDS011;11828;51.508;18.118;2023-04-15T01:58:16;29.00;;;23.38;;
23310;SDS011;11828;51.508;18.118;2023-04-15T02:00:43;36.78;;;14.25;;
23310;SDS011;11828;51.508;18.118;2023-04-15T02:03:09;24.55;;;13.05;;
23310;SDS011;11828;51.508;18.118;2023-04-15T02:05:36;18.75;;;8.25;;
23310;SDS011;11828;51.508;18.118;2023-04-15T02:08:02;22.08;;;8.77;;
23310;SDS011;11828;51.508;18.118;2023-04-15T02:10:28;39.17;;;14.32;;
23310;SDS011;11828;51.508;18.118;2023-04-15T02:12:55;21.63;;;13.23;;
23310;SDS011;11828;51.508;18.118;2023-04-15T02:15:21;21.08;;;8.93;;
23310;SDS011;11828;51.508;18.118;2023-04-15T02:17:47;18.63;;;8.73;;
23310;SDS011;11828;51.508;18.118;2023-04-15T02:20:18;26.75;;;11.63;;
23310;SDS011;11828;51.508;18.118;2023-04-15T02:22:46;17.17;;;7.75;;
23310;SDS011;11828;51.508;18.118;2023-04-15T02:25:12;18.95;;;11.52;;
23310;SDS011;11828;51.508;18.118;2023-04-15T02:27:41;23.50;;;11.25;;
23310;SDS011;11828;51.508;18.118;2023-04-15T02:30:08;15.05;;;7.82;;
23310;SDS011;11828;51.508;18.118;2023-04-15T02:32:35;16.00;;;7.95;;
23310;SDS011;11828;51.508;18.118;2023-04-15T02:35:05;29.67;;;19.90;;
23310;SDS011;11828;51.508;18.118;2023-04-15T02:37:34;22.23;;;9.35;;
23310;SDS011;11828;51.508;18.118;2023-04-15T02:40:08;20.55;;;8.00;;
23310;SDS011;11828;51.508;18.118;2023-04-15T02:42:38;16.33;;;8.40;;
23310;SDS011;11828;51.508;18.118;2023-04-15T02:45:05;18.25;;;8.45;;
23310;SDS011;11828;51.508;18.118;2023-04-15T02:47:33;16.13;;;8.30;;
23310;SDS011;11828;51.508;18.118;2023-04-15T02:50:01;33.58;;;10.05;;
23310;SDS011;11828;51.508;18.118;2023-04-15T02:52:29;21.42;;;8.90;;
23310;SDS011;11828;51.508;18.118;2023-04-15T02:54:55;20.20;;;9.05;;
23310;SDS011;11828;51.508;18.118;2023-04-15T02:57:25;22.23;;;9.65;;
23310;SDS011;11828;51.508;18.118;2023-04-15T02:59:55;31.98;;;25.95;;
23310;SDS011;11828;51.508;18.118;2023-04-15T03:02:21;22.35;;;15.93;;
23310;SDS011;11828;51.508;18.118;2023-04-15T03:04:48;28.58;;;24.73;;
23310;SDS011;11828;51.508;18.118;2023-04-15T03:07:14;29.58;;;24.92;;
23310;SDS011;11828;51.508;18.118;2023-04-15T03:09:42;28.30;;;20.67;;
23310;SDS011;11828;51.508;18.118;2023-04-15T03:12:09;21.52;;;9.18;;
23310;SDS011;11828;51.508;18.118;2023-04-15T03:14:35;23.77;;;12.32;;
23310;SDS011;11828;51.508;18.118;2023-04-15T03:17:02;24.35;;;13.70;;
23310;SDS011;11828;51.508;18.118;2023-04-15T03:19:27;22.60;;;14.18;;
23310;SDS011;11828;51.508;18.118;2023-04-15T03:21:54;20.77;;;8.38;;
23310;SDS011;11828;51.508;18.118;2023-04-15T03:24:20;22.02;;;10.20;;
23310;SDS011;11828;51.508;18.118;2023-04-15T03:26:46;21.10;;;9.40;;
23310;SDS011;11828;51.508;18.118;2023-04-15T03:29:12;18.58;;;7.70;;
23310;SDS011;11828;51.508;18.118;2023-04-15T03:31:39;22.55;;;8.80;;
23310;SDS011;11828;51.508;18.118;2023-04-15T03:34:05;21.88;;;11.48;;
23310;SDS011;11828;51.508;18.118;2023-04-15T03:36:32;26.27;;;9.40;;
23310;SDS011;11828;51.508;18.118;2023-04-15T03:38:58;23.30;;;10.13;;
23310;SDS011;11828;51.508;18.118;2023-04-15T03:41:26;20.30;;;10.88;;
23310;SDS011;11828;51.508;18.118;2023-04-15T03:43:53;21.20;;;8.50;;
23310;SDS011;11828;51.508;18.118;2023-04-15T03:46:19;23.17;;;13.75;;
23310;SDS011;11828;51.508;18.118;2023-04-15T03:48:45;28.75;;;13.32;;
23310;SDS011;11828;51.508;18.118;2023-04-15T03:51:12;18.60;;;8.05;;
23310;SDS011;11828;51.508;18.118;2023-04-15T03:53:38;18.55;;;8.52;;
23310;SDS011;11828;51.508;18.118;2023-04-15T03:56:05;18.75;;;9.93;;
23310;SDS011;11828;51.508;18.118;2023-04-15T03:58:31;23.83;;;10.48;;
23310;SDS011;11828;51.508;18.118;2023-04-15T04:00:57;22.48;;;10.70;;
23310;SDS011;11828;51.508;18.118;2023-04-15T04:03:23;18.85;;;8.38;;
23310;SDS011;11828;51.508;18.118;2023-04-15T04:05:50;18.00;;;7.93;;
23310;SDS011;11828;51.508;18.118;2023-04-15T04:08:16;27.02;;;9.40;;
23310;SDS011;11828;51.508;18.118;2023-04-15T04:10:44;17.67;;;8.15;;
23310;SDS011;11828;51.508;18.118;2023-04-15T04:13:10;19.98;;;8.88;;
23310;SDS011;11828;51.508;18.118;2023-04-15T04:15:36;24.25;;;9.23;;
23310;SDS011;11828;51.508;18.118;2023-04-15T04:18:02;21.90;;;8.90;;
23310;SDS011;11828;51.508;18.118;2023-04-15T04:20:28;33.25;;;11.10;;
23310;SDS011;11828;51.508;18.118;2023-04-15T04:22:56;25.05;;;8.88;;
23310;SDS011;11828;51.508;18.118;2023-04-15T04:25:23;18.80;;;10.55;;
23310;SDS011;11828;51.508;18.118;2023-04-15T04:27:49;22.85;;;9.60;;
23310;SDS011;11828;51.508;18.118;2023-04-15T04:30:16;26.20;;;10.75;;
23310;SDS011;11828;51.508;18.118;2023-04-15T04:32:42;34.42;;;12.45;;
23310;SDS011;11828;51.508;18.118;2023-04-15T04:35:09;35.53;;;11.90;;
23310;SDS011;11828;51.508;18.118;2023-04-15T04:37:35;21.80;;;10.65;;
23310;SDS011;11828;51.508;18.118;2023-04-15T04:40:01;17.80;;;8.60;;
23310;SDS011;11828;51.508;18.118;2023-04-15T04:42:28;21.80;;;10.57;;
23310;SDS011;11828;51.508;18.118;2023-04-15T04:44:56;27.17;;;12.32;;
23310;SDS011;11828;51.508;18.118;2023-04-15T04:47:22;28.85;;;12.18;;
23310;SDS011;11828;51.508;18.118;2023-04-15T04:49:48;23.15;;;10.15;;
23310;SDS011;11828;51.508;18.118;2023-04-15T04:52:14;24.02;;;11.20;;
23310;SDS011;11828;51.508;18.118;2023-04-15T04:54:40;28.65;;;10.80;;
23310;SDS011;11828;51.508;18.118;2023-04-15T04:57:06;22.02;;;10.75;;
23310;SDS011;11828;51.508;18.118;2023-04-15T04:59:33;18.45;;;9.65;;
23310;SDS011;11828;51.508;18.118;2023-04-15T05:01:59;22.77;;;10.63;;
23310;SDS011;11828;51.508;18.118;2023-04-15T05:04:25;30.23;;;11.60;;
23310;SDS011;11828;51.508;18.118;2023-04-15T05:06:51;22.35;;;11.80;;
23310;SDS011;11828;51.508;18.118;2023-04-15T05:09:18;36.88;;;16.00;;
23310;SDS011;11828;51.508;18.118;2023-04-15T05:11:44;30.63;;;15.32;;
23310;SDS011;11828;51.508;18.118;2023-04-15T05:14:10;34.63;;;14.93;;
23310;SDS011;11828;51.508;18.118;2023-04-15T05:16:36;43.78;;;17.58;;
23310;SDS011;11828;51.508;18.118;2023-04-15T05:19:02;36.70;;;13.52;;
23310;SDS011;11828;51.508;18.118;2023-04-15T05:21:28;59.25;;;22.27;;
23310;SDS011;11828;51.508;18.118;2023-04-15T05:23:56;38.92;;;15.98;;
23310;SDS011;11828;51.508;18.118;2023-04-15T05:26:22;27.58;;;12.15;;
23310;SDS011;11828;51.508;18.118;2023-04-15T05:28:48;25.58;;;12.02;;
23310;SDS011;11828;51.508;18.118;2023-04-15T05:31:15;25.23;;;10.88;;
23310;SDS011;11828;51.508;18.118;2023-04-15T05:33:41;27.33;;;13.48;;
23310;SDS011;11828;51.508;18.118;2023-04-15T05:36:07;31.13;;;12.80;;
23310;SDS011;11828;51.508;18.118;2023-04-15T05:38:34;30.38;;;13.57;;
23310;SDS011;11828;51.508;18.118;2023-04-15T05:41:00;25.10;;;11.82;;
23310;SDS011;11828;51.508;18.118;2023-04-15T05:43:26;22.88;;;12.55;;
23310;SDS011;11828;51.508;18.118;2023-04-15T05:45:52;24.10;;;10.60;;
23310;SDS011;11828;51.508;18.118;2023-04-15T05:48:18;15.50;;;8.70;;
23310;SDS011;11828;51.508;18.118;2023-04-15T05:50:45;17.13;;;8.57;;
23310;SDS011;11828;51.508;18.118;2023-04-15T05:53:11;19.02;;;8.40;;
23310;SDS011;11828;51.508;18.118;2023-04-15T05:55:37;15.63;;;7.38;;
23310;SDS011;11828;51.508;18.118;2023-04-15T05:58:04;24.92;;;10.90;;
23310;SDS011;11828;51.508;18.118;2023-04-15T06:00:30;37.42;;;14.88;;
23310;SDS011;11828;51.508;18.118;2023-04-15T06:02:56;31.38;;;13.65;;
23310;SDS011;11828;51.508;18.118;2023-04-15T06:05:23;28.25;;;11.57;;
23310;SDS011;11828;51.508;18.118;2023-04-15T06:07:49;21.92;;;10.13;;
23310;SDS011;11828;51.508;18.118;2023-04-15T06:10:15;22.58;;;9.77;;
23310;SDS011;11828;51.508;18.118;2023-04-15T06:12:42;24.98;;;10.68;;
23310;SDS011;11828;51.508;18.118;2023-04-15T06:15:08;28.45;;;10.82;;
23310;SDS011;11828;51.508;18.118;2023-04-15T06:17:35;44.10;;;22.00;;
23310;SDS011;11828;51.508;18.118;2023-04-15T06:20:02;46.65;;;25.42;;
23310;SDS011;11828;51.508;18.118;2023-04-15T06:22:29;36.53;;;16.95;;
23310;SDS011;11828;51.508;18.118;2023-04-15T06:24:55;21.88;;;9.93;;
23310;SDS011;11828;51.508;18.118;2023-04-15T06:27:21;32.97;;;11.10;;
23310;SDS011;11828;51.508;18.118;2023-04-15T06:29:47;20.20;;;7.50;;
23310;SDS011;11828;51.508;18.118;2023-04-15T06:32:13;21.40;;;7.80;;
23310;SDS011;11828;51.508;18.118;2023-04-15T06:34:39;17.17;;;7.13;;
23310;SDS011;11828;51.508;18.118;2023-04-15T06:37:06;14.65;;;5.53;;
23310;SDS011;11828;51.508;18.118;2023-04-15T06:39:33;16.67;;;7.25;;
23310;SDS011;11828;51.508;18.118;2023-04-15T06:41:59;15.23;;;6.10;;
23310;SDS011;11828;51.508;18.118;2023-04-15T06:44:25;13.85;;;5.43;;
23310;SDS011;11828;51.508;18.118;2023-04-15T06:46:51;15.52;;;5.90;;
23310;SDS011;11828;51.508;18.118;2023-04-15T06:49:17;13.88;;;6.18;;
23310;SDS011;11828;51.508;18.118;2023-04-15T06:51:44;14.15;;;6.28;;
23310;SDS011;11828;51.508;18.118;2023-04-15T06:54:10;15.63;;;8.57;;
23310;SDS011;11828;51.508;18.118;2023-04-15T06:56:37;14.32;;;5.70;;
23310;SDS011;11828;51.508;18.118;2023-04-15T06:59:03;18.95;;;6.57;;
23310;SDS011;11828;51.508;18.118;2023-04-15T07:01:29;17.20;;;6.22;;
23310;SDS011;11828;51.508;18.118;2023-04-15T07:03:55;24.73;;;6.47;;
23310;SDS011;11828;51.508;18.118;2023-04-15T07:06:22;16.88;;;5.88;;
23310;SDS011;11828;51.508;18.118;2023-04-15T07:08:48;13.63;;;6.55;;
23310;SDS011;11828;51.508;18.118;2023-04-15T07:11:14;17.38;;;5.47;;
23310;SDS011;11828;51.508;18.118;2023-04-15T07:13:41;16.63;;;5.72;;
23310;SDS011;11828;51.508;18.118;2023-04-15T07:16:07;13.43;;;5.18;;
23310;SDS011;11828;51.508;18.118;2023-04-15T07:18:33;16.90;;;5.82;;
23310;SDS011;11828;51.508;18.118;2023-04-15T07:21:00;14.30;;;5.93;;
23310;SDS011;11828;51.508;18.118;2023-04-15T07:23:26;21.83;;;8.57;;
23310;SDS011;11828;51.508;18.118;2023-04-15T07:25:53;16.80;;;7.20;;
23310;SDS011;11828;51.508;18.118;2023-04-15T07:28:19;16.42;;;5.70;;
23310;SDS011;11828;51.508;18.118;2023-04-15T07:30:46;13.18;;;5.03;;
23310;SDS011;11828;51.508;18.118;2023-04-15T07:33:12;12.68;;;5.90;;
23310;SDS011;11828;51.508;18.118;2023-04-15T07:35:39;13.48;;;5.20;;
23310;SDS011;11828;51.508;18.118;2023-04-15T07:38:05;16.80;;;5.35;;
23310;SDS011;11828;51.508;18.118;2023-04-15T07:40:31;15.50;;;5.70;;
23310;SDS011;11828;51.508;18.118;2023-04-15T07:42:57;14.45;;;5.88;;
23310;SDS011;11828;51.508;18.118;2023-04-15T07:45:23;12.98;;;5.32;;
23310;SDS011;11828;51.508;18.118;2023-04-15T07:47:49;15.25;;;5.45;;
23310;SDS011;11828;51.508;18.118;2023-04-15T07:50:16;23.35;;;6.55;;
23310;SDS011;11828;51.508;18.118;2023-04-15T07:52:43;12.43;;;5.68;;
23310;SDS011;11828;51.508;18.118;2023-04-15T07:55:10;18.98;;;7.05;;
23310;SDS011;11828;51.508;18.118;2023-04-15T07:57:36;16.08;;;6.68;;
23310;SDS011;11828;51.508;18.118;2023-04-15T08:00:03;17.02;;;6.57;;
23310;SDS011;11828;51.508;18.118;2023-04-15T08:02:31;23.88;;;11.57;;
23310;SDS011;11828;51.508;18.118;2023-04-15T08:04:58;21.42;;;11.05;;
23310;SDS011;11828;51.508;18.118;2023-04-15T08:07:27;19.10;;;8.68;;
23310;SDS011;11828;51.508;18.118;2023-04-15T08:09:53;22.67;;;9.02;;
23310;SDS011;11828;51.508;18.118;2023-04-15T08:12:19;25.65;;;13.77;;
23310;SDS011;11828;51.508;18.118;2023-04-15T08:14:46;27.92;;;17.33;;
23310;SDS011;11828;51.508;18.118;2023-04-15T08:17:12;27.30;;;14.80;;
23310;SDS011;11828;51.508;18.118;2023-04-15T08:19:38;28.67;;;15.70;;
23310;SDS011;11828;51.508;18.118;2023-04-15T08:22:05;29.20;;;15.40;;
23310;SDS011;11828;51.508;18.118;2023-04-15T08:24:31;27.58;;;14.15;;
23310;SDS011;11828;51.508;18.118;2023-04-15T08:26:57;29.55;;;13.48;;
23310;SDS011;11828;51.508;18.118;2023-04-15T08:29:24;31.27;;;13.30;;
23310;SDS011;11828;51.508;18.118;2023-04-15T08:31:51;26.92;;;12.05;;
23310;SDS011;11828;51.508;18.118;2023-04-15T08:34:18;24.25;;;11.27;;
23310;SDS011;11828;51.508;18.118;2023-04-15T08:36:44;20.20;;;10.48;;
23310;SDS011;11828;51.508;18.118;2023-04-15T08:39:11;25.65;;;12.90;;
23310;SDS011;11828;51.508;18.118;2023-04-15T08:41:44;30.73;;;13.93;;
23310;SDS011;11828;51.508;18.118;2023-04-15T08:44:13;17.52;;;8.90;;
23310;SDS011;11828;51.508;18.118;2023-04-15T08:46:39;21.10;;;9.27;;
23310;SDS011;11828;51.508;18.118;2023-04-15T08:49:10;21.73;;;8.60;;
23310;SDS011;11828;51.508;18.118;2023-04-15T08:51:38;16.45;;;7.03;;
23310;SDS011;11828;51.508;18.118;2023-04-15T08:54:06;22.55;;;8.60;;
23310;SDS011;11828;51.508;18.118;2023-04-15T08:56:33;22.30;;;8.18;;
23310;SDS011;11828;51.508;18.118;2023-04-15T08:59:01;20.58;;;7.85;;
23310;SDS011;11828;51.508;18.118;2023-04-15T09:01:27;21.40;;;7.90;;
23310;SDS011;11828;51.508;18.118;2023-04-15T09:03:55;18.50;;;8.07;;
23310;SDS011;11828;51.508;18.118;2023-04-15T09:06:22;17.65;;;7.30;;
23310;SDS011;11828;51.508;18.118;2023-04-15T09:08:48;22.98;;;8.15;;
23310;SDS011;11828;51.508;18.118;2023-04-15T09:11:16;16.85;;;7.82;;
23310;SDS011;11828;51.508;18.118;2023-04-15T09:13:42;18.08;;;7.07;;
23310;SDS011;11828;51.508;18.118;2023-04-15T09:16:08;59.25;;;10.98;;
23310;SDS011;11828;51.508;18.118;2023-04-15T09:18:35;14.68;;;6.45;;
23310;SDS011;11828;51.508;18.118;2023-04-15T09:21:04;31.90;;;8.23;;
23310;SDS011;11828;51.508;18.118;2023-04-15T09:23:33;15.75;;;6.38;;
23310;SDS011;11828;51.508;18.118;2023-04-15T09:26:00;15.82;;;6.47;;
23310;SDS011;11828;51.508;18.118;2023-04-15T09:28:28;16.20;;;6.63;;
23310;SDS011;11828;51.508;18.118;2023-04-15T09:30:55;15.82;;;6.65;;
23310;SDS011;11828;51.508;18.118;2023-04-15T09:33:25;16.67;;;6.57;;
23310;SDS011;11828;51.508;18.118;2023-04-15T09:36:12;18.63;;;6.63;;
23310;SDS011;11828;51.508;18.118;2023-04-15T09:38:51;16.45;;;7.05;;
23310;SDS011;11828;51.508;18.118;2023-04-15T09:41:23;13.50;;;6.45;;
23310;SDS011;11828;51.508;18.118;2023-04-15T09:43:50;14.18;;;6.20;;
23310;SDS011;11828;51.508;18.118;2023-04-15T09:46:17;14.52;;;5.95;;
23310;SDS011;11828;51.508;18.118;2023-04-15T09:48:43;14.25;;;6.00;;
23310;SDS011;11828;51.508;18.118;2023-04-15T09:51:10;15.73;;;6.10;;
23310;SDS011;11828;51.508;18.118;2023-04-15T09:53:36;16.23;;;6.15;;
23310;SDS011;11828;51.508;18.118;2023-04-15T09:56:02;19.40;;;6.43;;
23310;SDS011;11828;51.508;18.118;2023-04-15T09:58:32;17.85;;;6.20;;
23310;SDS011;11828;51.508;18.118;2023-04-15T10:01:02;17.20;;;6.00;;
23310;SDS011;11828;51.508;18.118;2023-04-15T10:03:34;16.55;;;5.75;;
23310;SDS011;11828;51.508;18.118;2023-04-15T10:06:03;14.18;;;5.28;;
23310;SDS011;11828;51.508;18.118;2023-04-15T10:08:30;12.57;;;5.47;;
23310;SDS011;11828;51.508;18.118;2023-04-15T10:11:01;12.20;;;5.65;;
23310;SDS011;11828;51.508;18.118;2023-04-15T10:13:30;14.35;;;5.82;;
23310;SDS011;11828;51.508;18.118;2023-04-15T10:16:11;14.23;;;6.05;;
23310;SDS011;11828;51.508;18.118;2023-04-15T10:18:45;12.95;;;5.60;;
23310;SDS011;11828;51.508;18.118;2023-04-15T10:21:15;23.05;;;7.47;;
23310;SDS011;11828;51.508;18.118;2023-04-15T10:23:44;17.17;;;5.85;;
23310;SDS011;11828;51.508;18.118;2023-04-15T10:26:10;20.00;;;8.05;;
23310;SDS011;11828;51.508;18.118;2023-04-15T10:28:39;18.30;;;6.93;;
23310;SDS011;11828;51.508;18.118;2023-04-15T10:31:06;18.80;;;6.35;;
23310;SDS011;11828;51.508;18.118;2023-04-15T10:33:33;21.65;;;6.90;;
23310;SDS011;11828;51.508;18.118;2023-04-15T10:35:59;17.23;;;6.05;;
23310;SDS011;11828;51.508;18.118;2023-04-15T10:38:31;22.80;;;6.63;;
23310;SDS011;11828;51.508;18.118;2023-04-15T10:43:47;16.35;;;6.15;;
23310;SDS011;11828;51.508;18.118;2023-04-15T10:46:35;16.30;;;7.00;;
23310;SDS011;11828;51.508;18.118;2023-04-15T10:49:45;16.33;;;6.32;;
23310;SDS011;11828;51.508;18.118;2023-04-15T10:51:56;19.27;;;6.78;;
23310;SDS011;11828;51.508;18.118;2023-04-15T10:59:31;14.75;;;5.57;;
23310;SDS011;11828;51.508;18.118;2023-04-15T11:02:02;15.88;;;6.07;;
23310;SDS011;11828;51.508;18.118;2023-04-15T11:07:35;16.17;;;5.57;;
23310;SDS011;11828;51.508;18.118;2023-04-15T11:10:49;20.08;;;5.72;;
23310;SDS011;11828;51.508;18.118;2023-04-15T11:12:56;15.70;;;5.10;;
23310;SDS011;11828;51.508;18.118;2023-04-15T11:15:33;15.43;;;5.20;;
23310;SDS011;11828;51.508;18.118;2023-04-15T11:18:08;18.55;;;6.00;;
23310;SDS011;11828;51.508;18.118;2023-04-15T11:20:53;18.05;;;6.10;;
23310;SDS011;11828;51.508;18.118;2023-04-15T11:23:31;19.33;;;6.80;;
23310;SDS011;11828;51.508;18.118;2023-04-15T11:26:04;18.00;;;6.53;;
23310;SDS011;11828;51.508;18.118;2023-04-15T11:28:36;13.93;;;4.90;;
23310;SDS011;11828;51.508;18.118;2023-04-15T11:31:09;14.55;;;5.13;;
23310;SDS011;11828;51.508;18.118;2023-04-15T11:33:54;18.95;;;5.68;;
23310;SDS011;11828;51.508;18.118;2023-04-15T11:36:26;21.10;;;6.30;;
23310;SDS011;11828;51.508;18.118;2023-04-15T11:38:54;15.68;;;5.32;;
23310;SDS011;11828;51.508;18.118;2023-04-15T11:41:23;17.52;;;6.15;;
23310;SDS011;11828;51.508;18.118;2023-04-15T11:43:50;17.75;;;6.80;;
23310;SDS011;11828;51.508;18.118;2023-04-15T11:46:17;13.45;;;6.00;;
23310;SDS011;11828;51.508;18.118;2023-04-15T11:48:44;20.40;;;6.95;;
23310;SDS011;11828;51.508;18.118;2023-04-15T11:51:11;16.15;;;6.20;;
23310;SDS011;11828;51.508;18.118;2023-04-15T11:53:43;17.23;;;6.25;;
23310;SDS011;11828;51.508;18.118;2023-04-15T11:56:17;13.27;;;5.20;;
23310;SDS011;11828;51.508;18.118;2023-04-15T11:58:51;19.00;;;6.20;;
23310;SDS011;11828;51.508;18.118;2023-04-15T12:01:31;17.98;;;6.60;;
23310;SDS011;11828;51.508;18.118;2023-04-15T12:04:10;16.92;;;6.45;;
23310;SDS011;11828;51.508;18.118;2023-04-15T12:06:38;16.02;;;5.40;;
23310;SDS011;11828;51.508;18.118;2023-04-15T12:11:32;15.30;;;5.88;;
23310;SDS011;11828;51.508;18.118;2023-04-15T12:14:25;16.73;;;6.22;;
23310;SDS011;11828;51.508;18.118;2023-04-15T12:17:03;16.33;;;5.88;;
23310;SDS011;11828;51.508;18.118;2023-04-15T12:19:33;17.35;;;6.20;;
23310;SDS011;11828;51.508;18.118;2023-04-15T12:22:03;19.88;;;6.75;;
23310;SDS011;11828;51.508;18.118;2023-04-15T12:24:35;17.55;;;6.32;;
23310;SDS011;11828;51.508;18.118;2023-04-15T12:27:07;18.55;;;6.30;;
23310;SDS011;11828;51.508;18.118;2023-04-15T12:29:38;18.77;;;6.28;;
23310;SDS011;11828;51.508;18.118;2023-04-15T12:32:08;16.35;;;6.43;;
23310;SDS011;11828;51.508;18.118;2023-04-15T12:34:40;18.77;;;6.28;;
23310;SDS011;11828;51.508;18.118;2023-04-15T12:37:15;16.67;;;6.35;;
23310;SDS011;11828;51.508;18.118;2023-04-15T12:39:42;19.70;;;7.05;;
23310;SDS011;11828;51.508;18.118;2023-04-15T12:42:11;18.48;;;6.82;;
23310;SDS011;11828;51.508;18.118;2023-04-15T12:44:37;24.35;;;10.50;;
23310;SDS011;11828;51.508;18.118;2023-04-15T12:47:04;22.35;;;8.75;;
23310;SDS011;11828;51.508;18.118;2023-04-15T12:49:32;18.58;;;7.20;;
23310;SDS011;11828;51.508;18.118;2023-04-15T12:51:59;13.13;;;5.82;;
23310;SDS011;11828;51.508;18.118;2023-04-15T12:54:27;15.63;;;5.32;;
23310;SDS011;11828;51.508;18.118;2023-04-15T12:56:56;15.30;;;4.72;;
23310;SDS011;11828;51.508;18.118;2023-04-15T12:59:23;18.35;;;5.38;;
23310;SDS011;11828;51.508;18.118;2023-04-15T13:01:50;16.45;;;5.35;;
23310;SDS011;11828;51.508;18.118;2023-04-15T13:04:17;18.27;;;5.57;;
23310;SDS011;11828;51.508;18.118;2023-04-15T13:06:45;14.98;;;5.10;;
23310;SDS011;11828;51.508;18.118;2023-04-15T13:09:14;26.17;;;5.65;;
23310;SDS011;11828;51.508;18.118;2023-04-15T13:11:40;13.10;;;4.35;;
23310;SDS011;11828;51.508;18.118;2023-04-15T13:14:07;17.00;;;5.18;;
23310;SDS011;11828;51.508;18.118;2023-04-15T13:16:34;17.25;;;5.13;;
23310;SDS011;11828;51.508;18.118;2023-04-15T13:19:01;16.50;;;5.45;;
23310;SDS011;11828;51.508;18.118;2023-04-15T13:21:28;15.35;;;5.25;;
23310;SDS011;11828;51.508;18.118;2023-04-15T13:23:56;16.20;;;7.38;;
23310;SDS011;11828;51.508;18.118;2023-04-15T13:26:22;17.77;;;5.95;;
23310;SDS011;11828;51.508;18.118;2023-04-15T13:28:48;13.15;;;5.45;;
23310;SDS011;11828;51.508;18.118;2023-04-15T13:31:15;13.27;;;5.22;;
23310;SDS011;11828;51.508;18.118;2023-04-15T13:33:40;19.30;;;5.38;;
23310;SDS011;11828;51.508;18.118;2023-04-15T13:36:07;18.00;;;5.88;;
23310;SDS011;11828;51.508;18.118;2023-04-15T13:38:33;19.98;;;6.18;;
23310;SDS011;11828;51.508;18.118;2023-04-15T13:40:59;22.73;;;6.53;;
23310;SDS011;11828;51.508;18.118;2023-04-15T13:43:25;17.67;;;5.82;;
23310;SDS011;11828;51.508;18.118;2023-04-15T13:45:52;12.82;;;5.25;;
23310;SDS011;11828;51.508;18.118;2023-04-15T13:48:18;20.85;;;6.15;;
23310;SDS011;11828;51.508;18.118;2023-04-15T13:50:44;15.73;;;5.38;;
23310;SDS011;11828;51.508;18.118;2023-04-15T13:53:10;19.23;;;5.93;;
23310;SDS011;11828;51.508;18.118;2023-04-15T13:55:37;17.40;;;5.70;;
23310;SDS011;11828;51.508;18.118;2023-04-15T13:58:07;15.82;;;5.38;;
23310;SDS011;11828;51.508;18.118;2023-04-15T14:00:34;15.15;;;4.93;;
23310;SDS011;11828;51.508;18.118;2023-04-15T14:03:00;21.13;;;6.00;;
23310;SDS011;11828;51.508;18.118;2023-04-15T14:05:26;15.82;;;5.63;;
23310;SDS011;11828;51.508;18.118;2023-04-15T14:07:52;14.98;;;5.55;;
23310;SDS011;11828;51.508;18.118;2023-04-15T14:10:19;17.45;;;7.00;;
23310;SDS011;11828;51.508;18.118;2023-04-15T14:12:45;19.55;;;6.78;;
23310;SDS011;11828;51.508;18.118;2023-04-15T14:15:11;20.63;;;6.85;;
23310;SDS011;11828;51.508;18.118;2023-04-15T14:17:37;25.67;;;8.35;;
23310;SDS011;11828;51.508;18.118;2023-04-15T14:20:05;19.80;;;7.28;;
23310;SDS011;11828;51.508;18.118;2023-04-15T14:22:32;19.05;;;7.80;;
23310;SDS011;11828;51.508;18.118;2023-04-15T14:24:59;20.50;;;8.15;;
23310;SDS011;11828;51.508;18.118;2023-04-15T14:27:25;16.75;;;7.20;;
23310;SDS011;11828;51.508;18.118;2023-04-15T14:29:53;26.65;;;7.82;;
23310;SDS011;11828;51.508;18.118;2023-04-15T14:32:19;19.92;;;6.90;;